| time (UTC) | temp F | wind direction | speed knots | gust knots | rain 1hr in | rain 24hr in | rain mn in | humidity % | barometer mb |
| 20260502163434 | 75 | 103 | 3.5 | 7.8 | 0.00 | 0.00 | 0.00 | 23 | 1025.2 |
| 20260502162934 | 75 | 323 | 2.6 | 7.8 | 0.00 | 0.00 | 0.00 | 23 | 1025.3 |
| 20260502162435 | 75 | 99 | 1.7 | 6.1 | 0.00 | 0.00 | 0.00 | 22 | 1025.3 |
| 20260502161934 | 76 | 316 | 0.9 | 4.3 | 0.00 | 0.00 | 0.00 | 23 | 1025.4 |
| 20260502161434 | 76 | 347 | 0.0 | 4.3 | 0.00 | 0.00 | 0.00 | 24 | 1025.5 |
| 20260502160934 | 75 | 47 | 0.0 | 4.3 | 0.00 | 0.00 | 0.00 | 21 | 1025.5 |
| 20260502160434 | 75 | 83 | 2.6 | 4.3 | 0.00 | 0.00 | 0.00 | 22 | 1025.5 |
| 20260502151934 | 76 | 142 | 0.0 | 2.6 | 0.00 | 0.00 | 0.00 | 22 | 1026.0 |
| 20260502151434 | 76 | 120 | 0.0 | 2.6 | 0.00 | 0.00 | 0.00 | 17 | 1025.9 |
| 20260502150935 | 76 | 151 | 0.9 | 2.6 | 0.00 | 0.00 | 0.00 | 13 | 1026.0 |
| 20260502150434 | 76 | 114 | 0.9 | 2.6 | 0.00 | 0.00 | 0.00 | 15 | 1026.0 |
| 20260502130434 | 76 | 120 | 0.9 | 3.5 | 0.00 | 0.00 | 0.00 | 19 | 1027.8 |
| 20260502123435 | 76 | 151 | 0.0 | 4.3 | 0.00 | 0.00 | 0.00 | 23 | 1028.2 |
| 20260502122934 | 76 | 204 | 0.0 | 1.7 | 0.00 | 0.00 | 0.00 | 22 | 1028.2 |
| 20260502122434 | 75 | 213 | 0.0 | 2.6 | 0.00 | 0.00 | 0.00 | 22 | 1028.3 |
| 20260502121934 | 74 | 202 | 0.0 | 4.3 | 0.00 | 0.00 | 0.00 | 22 | 1028.3 |
| 20260502121434 | 74 | 213 | 2.6 | 5.2 | 0.00 | 0.01 | 0.00 | 20 | 1028.4 |
| 20260502120935 | 74 | 179 | 2.6 | 5.2 | 0.00 | 0.01 | 0.00 | 23 | 1028.5 |
| 20260502120435 | 74 | 166 | 0.9 | 3.5 | 0.00 | 0.01 | 0.00 | 23 | 1028.5 |
| 20260502115434 | 74 | 154 | 0.9 | 5.2 | 0.00 | 0.01 | 0.00 | 29 | 1028.6 |
| 20260502114934 | 74 | 11 | 0.0 | 1.7 | 0.00 | 0.01 | 0.00 | 20 | 1028.7 |
| 20260502114434 | 74 | 283 | 0.0 | 1.7 | 0.00 | 0.01 | 0.00 | 23 | 1028.7 |
| 20260502113935 | 74 | 145 | 0.0 | 2.6 | 0.00 | 0.01 | 0.00 | 23 | 1028.9 |
| 20260502113435 | 73 | 117 | 0.9 | 2.6 | 0.00 | 0.01 | 0.00 | 25 | 1029.0 |
| 20260502112935 | 73 | 109 | 0.0 | 2.6 | 0.00 | 0.01 | 0.00 | 27 | 1029.0 |
| 20260502112434 | 73 | 138 | 0.0 | 2.6 | 0.00 | 0.01 | 0.00 | 21 | 1029.0 |
| 20260502111934 | 73 | 63 | 0.0 | 0.9 | 0.00 | 0.01 | 0.00 | 25 | 1029.2 |
| 20260502111435 | 72 | 144 | 0.0 | 0.9 | 0.00 | 0.01 | 0.00 | 28 | 1029.2 |
| 20260502110935 | 71 | 85 | 0.0 | 3.5 | 0.00 | 0.01 | 0.00 | 27 | 1029.3 |
| 20260502110435 | 71 | 123 | 1.7 | 3.5 | 0.00 | 0.01 | 0.00 | 33 | 1029.5 |
| 20260502105935 | 71 | 266 | 0.0 | 0.9 | 0.00 | 0.01 | 0.00 | 30 | 1029.6 |
| 20260502105434 | 70 | 133 | 0.0 | 1.7 | 0.00 | 0.01 | 0.00 | 33 | 1029.5 |
| 20260502104934 | 69 | 149 | 0.0 | 1.7 | 0.00 | 0.01 | 0.00 | 39 | 1029.7 |
| 20260502104435 | 69 | 216 | 0.0 | 3.5 | 0.00 | 0.01 | 0.00 | 39 | 1029.7 |
| 20260502103935 | 68 | 106 | 0.0 | 3.5 | 0.00 | 0.01 | 0.00 | 39 | 1029.8 |
| 20260502103435 | 67 | 154 | 0.0 | 3.5 | 0.00 | 0.01 | 0.00 | 36 | 1029.9 |
| 20260502102935 | 67 | 134 | 0.9 | 3.5 | 0.00 | 0.01 | 0.00 | 41 | 1029.9 |
| 20260502102435 | 66 | 169 | 0.9 | 4.3 | 0.00 | 0.01 | 0.00 | 40 | 1030.0 |
| 20260502101934 | 66 | 121 | 1.7 | 4.3 | 0.00 | 0.01 | 0.00 | 41 | 1030.0 |
| 20260502101434 | 65 | 111 | 1.7 | 4.3 | 0.00 | 0.01 | 0.00 | 45 | 1030.2 |
| 20260502100935 | 65 | 127 | 1.7 | 4.3 | 0.00 | 0.01 | 0.00 | 44 | 1030.3 |
| 20260502100434 | 64 | 130 | 1.7 | 3.5 | 0.00 | 0.01 | 0.00 | 45 | 1030.4 |
| 20260502091435 | 60 | 134 | 1.7 | 3.5 | 0.00 | 0.01 | 0.00 | 57 | 1031.3 |
| 20260502090934 | 59 | 120 | 0.9 | 3.5 | 0.00 | 0.01 | 0.00 | 56 | 1031.3 |
| 20260502090434 | 59 | 116 | 0.9 | 3.5 | 0.00 | 0.01 | 0.00 | 56 | 1031.4 |
| 20260502071435 | 48 | 152 | 2.6 | 5.2 | 0.00 | 0.01 | 0.00 | 74 | 1032.9 |
| 20260502070935 | 48 | 138 | 1.7 | 5.2 | 0.00 | 0.01 | 0.00 | 73 | 1033.0 |
| 20260502070435 | 48 | 118 | 3.5 | 5.2 | 0.00 | 0.01 | 0.00 | 74 | 1033.1 |
| 20260502065935 | 47 | 144 | 2.6 | 4.3 | 0.00 | 0.01 | 0.00 | 74 | 1033.1 |
| 20260502065434 | 47 | 133 | 2.6 | 4.3 | 0.00 | 0.01 | 0.00 | 75 | 1033.3 |
| 20260502064934 | 47 | 109 | 1.7 | 3.5 | 0.00 | 0.01 | 0.00 | 75 | 1033.3 |
| 20260502064434 | 46 | 128 | 0.9 | 2.6 | 0.00 | 0.01 | 0.00 | 75 | 1033.4 |
| 20260502063934 | 46 | 159 | 0.0 | 2.6 | 0.00 | 0.01 | 0.00 | 76 | 1033.4 |
| 20260502063434 | 45 | 125 | 1.7 | 3.5 | 0.00 | 0.01 | 0.00 | 76 | 1033.5 |
| 20260502062935 | 45 | 118 | 1.7 | 3.5 | 0.00 | 0.01 | 0.00 | 76 | 1033.5 |
| 20260502062435 | 44 | 137 | 1.7 | 3.5 | 0.00 | 0.01 | 0.00 | 76 | 1033.5 |
| 20260502061935 | 44 | 116 | 1.7 | 3.5 | 0.00 | 0.01 | 0.00 | 75 | 1033.6 |
| 20260502061435 | 44 | 127 | 1.7 | 4.3 | 0.00 | 0.01 | 0.00 | 75 | 1033.7 |
| 20260502060935 | 44 | 97 | 1.7 | 4.3 | 0.00 | 0.01 | 0.00 | 76 | 1033.7 |
| 20260502060435 | 44 | 127 | 1.7 | 3.5 | 0.00 | 0.01 | 0.00 | 76 | 1033.6 |
| 20260502055935 | 44 | 109 | 1.7 | 3.5 | 0.00 | 0.01 | 0.00 | 76 | 1033.6 |
| 20260502055434 | 44 | 128 | 0.9 | 1.7 | 0.00 | 0.01 | 0.00 | 76 | 1033.6 |
| 20260502054934 | 45 | 134 | 0.0 | 0.9 | 0.00 | 0.01 | 0.00 | 76 | 1033.7 |
| 20260502054434 | 44 | 292 | 0.0 | 0.9 | 0.00 | 0.01 | 0.00 | 76 | 1033.7 |
| 20260502053935 | 44 | 292 | 0.0 | 0.9 | 0.00 | 0.01 | 0.00 | 76 | 1033.7 |
| 20260502053434 | 44 | 288 | 0.0 | 0.0 | 0.00 | 0.01 | 0.00 | 69 | 1033.8 |
| 20260502052934 | 42 | 288 | 0.0 | 0.0 | 0.00 | 0.01 | 0.00 | 65 | 1033.8 |
| 20260502052434 | 42 | 288 | 0.0 | 0.0 | 0.00 | 0.01 | 0.00 | 68 | 1033.7 |
| 20260502051935 | 41 | 288 | 0.0 | 0.0 | 0.00 | 0.01 | 0.00 | 58 | 1033.7 |
| 20260502051434 | 40 | 288 | 0.0 | 0.0 | 0.00 | 0.01 | 0.00 | 51 | 1033.7 |
| 20260502050935 | 39 | 288 | 0.0 | 0.0 | 0.00 | 0.01 | 0.00 | 38 | 1033.8 |
| 20260502050435 | 38 | 288 | 0.0 | 0.0 | 0.00 | 0.01 | 0.00 | 40 | 1033.8 |
| 20260502045935 | 37 | 288 | 0.0 | 0.0 | 0.00 | 0.01 | 0.00 | 42 | 1033.7 |
| 20260502045435 | 37 | 288 | 0.0 | 0.0 | 0.00 | 0.01 | 0.00 | 41 | 1033.8 |
| 20260502044934 | 37 | 288 | 0.0 | 0.9 | 0.00 | 0.01 | 0.00 | 38 | 1033.6 |
| 20260502044434 | 37 | 288 | 0.0 | 0.9 | 0.00 | 0.01 | 0.00 | 43 | 1033.7 |
| 20260502043934 | 37 | 288 | 0.0 | 0.9 | 0.00 | 0.01 | 0.00 | 44 | 1033.7 |
| 20260502043434 | 37 | 288 | 0.0 | 0.9 | 0.00 | 0.01 | 0.00 | 45 | 1033.8 |
| 20260502042934 | 37 | 288 | 0.0 | 0.9 | 0.00 | 0.01 | 0.00 | 48 | 1033.7 |
| 20260502042435 | 37 | 296 | 0.0 | 0.0 | 0.00 | 0.01 | 0.00 | 46 | 1033.7 |
| 20260502041934 | 37 | 296 | 0.0 | 0.0 | 0.00 | 0.01 | 0.00 | 45 | 1033.7 |
| 20260502041434 | 37 | 296 | 0.0 | 0.9 | 0.00 | 0.01 | 0.00 | 49 | 1033.7 |
| 20260502040934 | 37 | 296 | 0.0 | 0.9 | 0.00 | 0.01 | 0.00 | 48 | 1033.6 |
| 20260502040435 | 37 | 296 | 0.0 | 0.9 | 0.00 | 0.01 | 0.00 | 45 | 1033.6 |
| 20260502035935 | 37 | 292 | 0.0 | 1.7 | 0.00 | 0.01 | 0.00 | 46 | 1033.6 |
| 20260502035435 | 37 | 292 | 0.0 | 1.7 | 0.00 | 0.01 | 0.00 | 49 | 1033.6 |
| 20260502034934 | 37 | 293 | 0.0 | 1.7 | 0.00 | 0.01 | 0.00 | 53 | 1033.6 |
| 20260502034434 | 37 | 303 | 0.0 | 0.9 | 0.00 | 0.01 | 0.00 | 53 | 1033.5 |
| 20260502033934 | 37 | 303 | 0.0 | 0.9 | 0.00 | 0.01 | 0.00 | 55 | 1033.6 |
| 20260502033434 | 37 | 298 | 0.0 | 0.9 | 0.00 | 0.01 | 0.00 | 60 | 1033.6 |
| 20260502032934 | 37 | 298 | 0.0 | 0.0 | 0.00 | 0.01 | 0.00 | 61 | 1033.6 |
| 20260502032434 | 38 | 298 | 0.0 | 0.0 | 0.00 | 0.01 | 0.00 | 64 | 1033.5 |
| 20260502031935 | 38 | 310 | 0.0 | 0.0 | 0.00 | 0.01 | 0.00 | 64 | 1033.5 |
| 20260502031435 | 38 | 310 | 0.0 | 0.0 | 0.00 | 0.01 | 0.00 | 62 | 1033.5 |
| 20260502030934 | 38 | 310 | 0.0 | 2.6 | 0.00 | 0.01 | 0.00 | 59 | 1033.6 |
| 20260502030434 | 38 | 310 | 0.0 | 2.6 | 0.00 | 0.01 | 0.00 | 60 | 1033.6 |
| 20260502025934 | 38 | 288 | 0.9 | 1.7 | 0.00 | 0.01 | 0.00 | 61 | 1033.6 |
| 20260502025434 | 38 | 296 | 0.0 | 0.9 | 0.00 | 0.01 | 0.00 | 63 | 1033.5 |
| 20260502024934 | 38 | 296 | 0.0 | 0.9 | 0.00 | 0.01 | 0.00 | 64 | 1033.6 |
| 20260502024435 | 38 | 296 | 0.0 | 0.9 | 0.00 | 0.01 | 0.00 | 63 | 1033.7 |
| 20260502023934 | 38 | 296 | 0.0 | 0.9 | 0.00 | 0.01 | 0.00 | 63 | 1033.7 |
| 20260502023434 | 38 | 285 | 0.0 | 0.9 | 0.00 | 0.01 | 0.00 | 65 | 1033.7 |
| 20260502022934 | 38 | 285 | 0.0 | 0.9 | 0.00 | 0.01 | 0.00 | 64 | 1033.7 |
| 20260502022434 | 38 | 285 | 0.0 | 1.7 | 0.00 | 0.01 | 0.00 | 64 | 1033.8 |
| 20260502021935 | 38 | 285 | 0.0 | 1.7 | 0.00 | 0.01 | 0.00 | 66 | 1033.7 |
| 20260502021435 | 38 | 289 | 0.9 | 1.7 | 0.00 | 0.01 | 0.00 | 67 | 1033.6 |
| 20260502020935 | 39 | 320 | 0.0 | 1.7 | 0.00 | 0.01 | 0.00 | 67 | 1033.6 |
| 20260502020434 | 38 | 290 | 0.0 | 1.7 | 0.00 | 0.01 | 0.00 | 71 | 1033.7 |
| 20260502015934 | 39 | 283 | 1.7 | 1.7 | 0.00 | 0.01 | 0.00 | 74 | 1033.6 |
| 20260502015433 | 40 | 345 | 0.0 | 0.9 | 0.00 | 0.01 | 0.00 | 71 | 1033.7 |
| 20260502014934 | 40 | 313 | 0.0 | 0.9 | 0.00 | 0.01 | 0.00 | 70 | 1033.6 |
| 20260502014434 | 39 | 313 | 0.0 | 0.9 | 0.00 | 0.01 | 0.00 | 70 | 1033.6 |
| 20260502013935 | 39 | 317 | 0.0 | 0.9 | 0.00 | 0.01 | 0.00 | 70 | 1033.7 |
| 20260502013434 | 39 | 317 | 0.0 | 0.9 | 0.00 | 0.01 | 0.00 | 70 | 1033.7 |
| 20260502012934 | 39 | 286 | 0.0 | 0.9 | 0.00 | 0.01 | 0.00 | 71 | 1033.7 |
| 20260502012434 | 40 | 286 | 0.0 | 0.9 | 0.00 | 0.01 | 0.00 | 72 | 1033.7 |
| 20260502011933 | 40 | 290 | 0.0 | 0.9 | 0.00 | 0.01 | 0.00 | 73 | 1033.8 |
| 20260502011433 | 40 | 300 | 0.0 | 0.9 | 0.00 | 0.01 | 0.00 | 73 | 1033.7 |
| 20260502010933 | 40 | 292 | 0.0 | 0.9 | 0.00 | 0.01 | 0.00 | 72 | 1033.7 |
| 20260502010433 | 40 | 292 | 0.0 | 1.7 | 0.00 | 0.01 | 0.00 | 73 | 1033.8 |
| 20260502005933 | 40 | 292 | 0.9 | 1.7 | 0.00 | 0.01 | 0.00 | 74 | 1033.7 |
| 20260502005434 | 41 | 293 | 0.0 | 0.0 | 0.00 | 0.01 | 0.00 | 75 | 1033.8 |
| 20260502004933 | 41 | 293 | 0.0 | 0.0 | 0.00 | 0.01 | 0.00 | 75 | 1033.8 |
| 20260502004433 | 41 | 293 | 0.0 | 0.0 | 0.00 | 0.01 | 0.00 | 75 | 1033.8 |
| 20260502003932 | 41 | 293 | 0.0 | 0.9 | 0.00 | 0.01 | 0.00 | 75 | 1033.8 |
| 20260502003432 | 41 | 293 | 0.0 | 0.9 | 0.00 | 0.01 | 0.00 | 75 | 1033.8 |
| 20260502002932 | 41 | 293 | 0.0 | 0.9 | 0.00 | 0.01 | 0.00 | 75 | 1033.8 |
| 20260502002432 | 41 | 293 | 0.0 | 0.9 | 0.00 | 0.01 | 0.00 | 75 | 1033.9 |
| 20260502001932 | 41 | 293 | 0.0 | 0.9 | 0.00 | 0.01 | 0.00 | 75 | 1033.8 |
| 20260502001433 | 41 | 293 | 0.0 | 1.7 | 0.00 | 0.01 | 0.00 | 74 | 1033.7 |
| 20260502000932 | 41 | 293 | 0.0 | 1.7 | 0.00 | 0.01 | 0.00 | 74 | 1033.8 |
| 20260502000432 | 41 | 288 | 1.7 | 1.7 | 0.00 | 0.01 | 0.00 | 75 | 1033.7 |
| 20260501235932 | 41 | 292 | 0.0 | 0.9 | 0.00 | 0.01 | 0.00 | 76 | 1033.7 |
| 20260501235431 | 41 | 290 | 0.0 | 0.9 | 0.00 | 0.01 | 0.00 | 76 | 1033.7 |
| 20260501234931 | 41 | 290 | 0.0 | 1.7 | 0.00 | 0.01 | 0.00 | 76 | 1033.8 |
| 20260501234431 | 41 | 290 | 0.9 | 1.7 | 0.00 | 0.01 | 0.00 | 76 | 1033.8 |
| 20260501233932 | 42 | 298 | 0.0 | 0.0 | 0.00 | 0.01 | 0.00 | 76 | 1033.7 |
| 20260501233432 | 42 | 300 | 0.0 | 0.9 | 0.00 | 0.01 | 0.00 | 76 | 1033.7 |
| 20260501232931 | 42 | 300 | 0.0 | 2.6 | 0.00 | 0.01 | 0.00 | 76 | 1033.8 |
| 20260501232431 | 42 | 298 | 0.9 | 2.6 | 0.00 | 0.01 | 0.00 | 76 | 1033.7 |
| 20260501231931 | 43 | 282 | 0.0 | 0.0 | 0.00 | 0.01 | 0.00 | 76 | 1033.7 |
| 20260501231431 | 43 | 302 | 0.0 | 0.0 | 0.00 | 0.01 | 0.00 | 76 | 1033.7 |
| 20260501230930 | 42 | 302 | 0.0 | 0.9 | 0.00 | 0.01 | 0.00 | 76 | 1033.6 |
| 20260501230430 | 42 | 298 | 0.0 | 0.9 | 0.00 | 0.01 | 0.00 | 76 | 1033.7 |
| 20260501225931 | 43 | 292 | 0.0 | 0.0 | 0.00 | 0.01 | 0.00 | 75 | 1033.7 |
| 20260501225430 | 43 | 292 | 0.0 | 0.0 | 0.00 | 0.01 | 0.00 | 75 | 1033.7 |
| 20260501224931 | 43 | 292 | 0.0 | 0.9 | 0.00 | 0.01 | 0.00 | 75 | 1033.7 |
| 20260501224431 | 43 | 292 | 0.0 | 0.9 | 0.00 | 0.01 | 0.00 | 75 | 1033.7 |
| 20260501223930 | 44 | 290 | 0.0 | 0.0 | 0.00 | 0.01 | 0.00 | 74 | 1033.8 |
| 20260501223430 | 44 | 312 | 0.0 | 1.7 | 0.00 | 0.01 | 0.00 | 75 | 1033.8 |
| 20260501222930 | 44 | 298 | 0.0 | 1.7 | 0.00 | 0.01 | 0.00 | 75 | 1033.8 |
| 20260501222429 | 44 | 293 | 0.9 | 1.7 | 0.00 | 0.01 | 0.00 | 74 | 1033.8 |
| 20260501221930 | 44 | 296 | 0.0 | 0.9 | 0.00 | 0.01 | 0.00 | 74 | 1033.7 |
| 20260501221429 | 44 | 292 | 0.0 | 0.9 | 0.00 | 0.01 | 0.00 | 74 | 1033.8 |
| 20260501220930 | 44 | 293 | 0.0 | 1.7 | 0.00 | 0.01 | 0.00 | 74 | 1033.8 |
| 20260501220430 | 45 | 293 | 0.0 | 1.7 | 0.00 | 0.01 | 0.00 | 73 | 1033.8 |
| 20260501215929 | 45 | 295 | 1.7 | 1.7 | 0.00 | 0.01 | 0.01 | 72 | 1033.7 |
| 20260501215429 | 45 | 300 | 0.0 | 1.7 | 0.00 | 0.01 | 0.01 | 72 | 1033.7 |
| 20260501214930 | 46 | 296 | 0.0 | 1.7 | 0.00 | 0.01 | 0.01 | 72 | 1033.7 |
| 20260501214429 | 46 | 305 | 0.0 | 3.5 | 0.00 | 0.01 | 0.01 | 71 | 1033.7 |
| 20260501213928 | 46 | 283 | 1.7 | 3.5 | 0.00 | 0.01 | 0.01 | 70 | 1033.7 |
| 20260501213428 | 45 | 286 | 1.7 | 3.5 | 0.00 | 0.01 | 0.01 | 73 | 1033.7 |
| 20260501212929 | 45 | 293 | 0.9 | 2.6 | 0.00 | 0.01 | 0.01 | 73 | 1033.7 |
| 20260501212429 | 45 | 298 | 1.7 | 2.6 | 0.00 | 0.01 | 0.01 | 72 | 1033.5 |
| 20260501211928 | 46 | 288 | 0.0 | 1.7 | 0.00 | 0.01 | 0.01 | 71 | 1033.7 |
| 20260501211429 | 46 | 312 | 0.9 | 1.7 | 0.00 | 0.01 | 0.01 | 70 | 1033.6 |
| 20260501210929 | 46 | 302 | 0.0 | 1.7 | 0.00 | 0.01 | 0.01 | 70 | 1033.6 |
| 20260501210429 | 46 | 298 | 0.9 | 1.7 | 0.00 | 0.01 | 0.01 | 71 | 1033.5 |
| 20260501205928 | 46 | 282 | 0.0 | 0.9 | 0.00 | 0.01 | 0.01 | 70 | 1033.6 |
| 20260501205428 | 47 | 296 | 0.0 | 2.6 | 0.00 | 0.01 | 0.01 | 69 | 1033.5 |
| 20260501204926 | 47 | 282 | 0.9 | 3.5 | 0.00 | 0.01 | 0.01 | 69 | 1033.5 |
| 20260501204428 | 47 | 289 | 1.7 | 3.5 | 0.00 | 0.01 | 0.01 | 69 | 1033.5 |
| 20260501203928 | 47 | 295 | 1.7 | 2.6 | 0.00 | 0.01 | 0.01 | 68 | 1033.4 |
| 20260501203427 | 48 | 289 | 0.0 | 2.6 | 0.00 | 0.01 | 0.01 | 66 | 1033.4 |
| 20260501202928 | 48 | 295 | 1.7 | 3.5 | 0.00 | 0.01 | 0.01 | 66 | 1033.3 |
| 20260501202427 | 48 | 293 | 2.6 | 3.5 | 0.00 | 0.01 | 0.01 | 66 | 1033.3 |
| 20260501201927 | 48 | 302 | 1.7 | 3.5 | 0.00 | 0.01 | 0.01 | 66 | 1033.1 |
| 20260501201426 | 49 | 307 | 1.7 | 3.5 | 0.00 | 0.01 | 0.01 | 64 | 1033.0 |
| 20260501200927 | 49 | 306 | 0.0 | 1.7 | 0.00 | 0.01 | 0.01 | 64 | 1033.1 |
| 20260501200426 | 49 | 314 | 0.9 | 1.7 | 0.00 | 0.01 | 0.01 | 64 | 1033.0 |
| 20260501195927 | 49 | 317 | 0.0 | 3.5 | 0.00 | 0.01 | 0.01 | 65 | 1033.0 |
| 20260501195426 | 49 | 338 | 0.0 | 3.5 | 0.00 | 0.01 | 0.01 | 64 | 1033.0 |
| 20260501194927 | 51 | 296 | 1.7 | 3.5 | 0.00 | 0.01 | 0.01 | 60 | 1032.8 |
| 20260501194427 | 51 | 330 | 0.0 | 1.7 | 0.00 | 0.01 | 0.01 | 58 | 1032.7 |
| 20260501193926 | 52 | 303 | 0.9 | 1.7 | 0.00 | 0.01 | 0.01 | 58 | 1032.8 |
| 20260501193426 | 52 | 307 | 0.9 | 1.7 | 0.00 | 0.01 | 0.01 | 58 | 1032.7 |
| 20260501192927 | 52 | 288 | 0.0 | 1.7 | 0.00 | 0.01 | 0.01 | 57 | 1032.7 |
| 20260501192426 | 52 | 310 | 0.0 | 1.7 | 0.00 | 0.01 | 0.01 | 57 | 1032.6 |
| 20260501191926 | 52 | 347 | 0.0 | 2.6 | 0.00 | 0.01 | 0.01 | 57 | 1032.6 |
| 20260501191426 | 53 | 337 | 0.0 | 2.6 | 0.00 | 0.01 | 0.01 | 56 | 1032.5 |
| 20260501190926 | 53 | 302 | 0.0 | 1.7 | 0.00 | 0.01 | 0.01 | 55 | 1032.4 |
| 20260501190425 | 54 | 358 | 0.0 | 0.0 | 0.00 | 0.01 | 0.01 | 54 | 1032.4 |
| 20260501185926 | 55 | 3 | 0.0 | 0.9 | 0.00 | 0.01 | 0.01 | 52 | 1032.4 |
| 20260501185426 | 55 | 11 | 0.0 | 0.9 | 0.00 | 0.01 | 0.01 | 51 | 1032.3 |
| 20260501184925 | 55 | 319 | 0.0 | 1.7 | 0.00 | 0.01 | 0.01 | 51 | 1032.3 |
| 20260501184425 | 55 | 321 | 0.9 | 3.5 | 0.00 | 0.01 | 0.01 | 50 | 1032.2 |
| 20260501183925 | 55 | 312 | 0.9 | 3.5 | 0.00 | 0.01 | 0.01 | 51 | 1032.1 |
| 20260501183425 | 56 | 316 | 0.9 | 5.2 | 0.00 | 0.01 | 0.01 | 49 | 1032.1 |
| 20260501182925 | 56 | 321 | 1.7 | 5.2 | 0.00 | 0.01 | 0.01 | 49 | 1032.0 |
| 20260501182425 | 57 | 316 | 0.9 | 3.5 | 0.00 | 0.01 | 0.01 | 48 | 1031.9 |
| 20260501181925 | 57 | 0 | 0.0 | 2.6 | 0.00 | 0.01 | 0.01 | 47 | 1031.7 |
| 20260501181424 | 57 | 303 | 0.9 | 2.6 | 0.00 | 0.01 | 0.01 | 47 | 1031.6 |
| 20260501180925 | 57 | 1 | 0.0 | 1.7 | 0.00 | 0.01 | 0.01 | 47 | 1031.6 |
| 20260501180425 | 58 | 300 | 0.0 | 1.7 | 0.00 | 0.01 | 0.01 | 46 | 1031.6 |
| 20260501175924 | 58 | 333 | 0.0 | 2.6 | 0.00 | 0.01 | 0.01 | 44 | 1031.5 |
| 20260501175424 | 59 | 334 | 0.9 | 2.6 | 0.00 | 0.01 | 0.01 | 43 | 1031.5 |
| 20260501174924 | 60 | 307 | 0.9 | 2.6 | 0.00 | 0.01 | 0.01 | 40 | 1031.4 |
| 20260501174424 | 60 | 330 | 0.0 | 2.6 | 0.00 | 0.01 | 0.01 | 41 | 1031.4 |
| 20260501173924 | 61 | 296 | 0.0 | 2.6 | 0.00 | 0.01 | 0.01 | 41 | 1031.3 |
| 20260501173423 | 62 | 293 | 0.0 | 2.6 | 0.00 | 0.01 | 0.01 | 39 | 1031.3 |
| 20260501172924 | 63 | 13 | 0.0 | 2.6 | 0.00 | 0.01 | 0.01 | 38 | 1031.2 |
| 20260501172424 | 64 | 54 | 0.0 | 1.7 | 0.00 | 0.01 | 0.01 | 35 | 1031.2 |
| 20260501171923 | 64 | 199 | 0.0 | 7.8 | 0.00 | 0.01 | 0.01 | 34 | 1031.1 |
| 20260501171423 | 65 | 140 | 0.0 | 7.8 | 0.00 | 0.01 | 0.01 | 34 | 1031.1 |
| 20260501170924 | 66 | 134 | 0.0 | 8.7 | 0.00 | 0.01 | 0.01 | 31 | 1031.1 |
| 20260501170423 | 66 | 134 | 3.5 | 11.3 | 0.00 | 0.01 | 0.01 | 31 | 1031.0 |
| 20260501165923 | 66 | 344 | 3.5 | 11.3 | 0.00 | 0.01 | 0.01 | 31 | 1031.0 |
| 20260501165423 | 66 | 38 | 2.6 | 9.6 | 0.00 | 0.01 | 0.01 | 32 | 1031.0 |
| 20260501164923 | 66 | 134 | 4.3 | 7.8 | 0.00 | 0.01 | 0.01 | 31 | 1031.0 |
| 20260501164423 | 66 | 171 | 0.9 | 7.8 | 0.00 | 0.01 | 0.01 | 31 | 1030.9 |
| 20260501163922 | 66 | 109 | 1.7 | 9.6 | 0.00 | 0.01 | 0.01 | 32 | 1030.9 |